• Join FlightAware (Why Join?)
  • Login
  • US Flag 
06:30AM EDT


 

Airport Tracker/Info


-or-


 

Live Flight TrackerFlight Track Log ✈ N1250V ✈ 17-Jun-2013 ✈ KASE - KBJC

Flight Track Log - Related Links

Times and Time Zones

All times are in EDT time to prevent confusion due to time zone crossing. See the N1250V flight status page for this flight to view local times or setup timezone preferences in your user account.

Time Position Orientation Groundspeed Altitude Reporting Facility
EDT Latitude Longitude Course Direction KTS MPH feet Rate Location/Type
10:24AM 39.2714 -106.9008 283° West 161 185 10,500  Level Denver Center
10:25AM 39.2806 -106.9539 283° West 149 171 12,500 1,740 Climbing Denver Center
10:26AM 39.3058 -106.9944 309° West 156 180 14,100 1,500 Climbing Denver Center
10:27AM 39.3264 -106.9431 63° Northeast 188 216 15,600 1,680 Climbing Denver Center
10:28AM 39.3331 -106.8636 84° East 194 223 17,600 1,680 Climbing Denver Center
10:29AM 39.3547 -106.7997 66° East 198 228 19,100 1,500 Climbing Denver Center
10:30AM 39.3769 -106.7306 67° East 202 232 20,700 900 Climbing Denver Center
10:31AM 39.4106 -106.6392 65° Northeast 249 287 21,000 120 Climbing Denver Center
10:32AM 39.4561 -106.5453 58° Northeast 310 357 21,000  Level Denver Center
10:33AM 39.5086 -106.4292 60° Northeast 343 395 21,000 -120 Level Denver Center
10:34AM 39.5653 -106.3256 55° Northeast 351 404 20,800 -720 Descending Denver Center
10:35AM 39.6208 -106.2228 55° Northeast 349 402 19,600 -1,080 Descending Denver Center
10:36AM 39.6689 -106.1122 61° Northeast 344 396 18,600 -780 Descending Denver Center
10:37AM 39.6983 -105.9956 72° East 341 392 18,000 -780 Descending Denver Center
10:38AM 39.7217 -105.8803 75° East 335 386 17,100 -540 Descending Denver Center
10:40AM 39.7531 -105.7528 72° East 313 360 16,900 -120 Descending Denver Center
10:41AM 39.7739 -105.6478 75° East 302 348 16,900 -120 Level Denver Center
10:42AM 39.7939 -105.5450 76° East 296 341 16,700 -780 Descending Denver Center
10:43AM 39.8231 -105.4333 71° East 301 346 15,400 -1,320 Descending Denver Center
10:44AM 39.8467 -105.3408 72° East 270 311 14,000 -1,920 Descending Denver Center
10:45AM 39.8517 -105.2492 86° East 243 280 11,500 -2,400 Descending Denver Center
10:46AM 39.8331 -105.1725 108° East 223 257 9,100 -1,800 Descending Denver Center
10:47AM 39.8297 -105.1072 94° East 190 219 7,800 -1,080 Descending Denver Center
10:48AM 39.8614 -105.0733 39° Northeast 151 174 6,900 -840 Descending Denver Center
10:49AM 39.8903 -105.0817 348° North 126 145 5,900 -600 Descending Denver Center
10:50AM 39.9083 -105.1164 304° West 84 97 5,600 -300 Descending Denver Center